Rejestracja

Wszystkie dane podawane są w czasie UTC za wyjątkiem miejsc gdzie jest jednoznacznie podane, że jest inaczej. Dane podawane w serwisie mają charakter informacyjny!!!
Informacje w sprawie dostępu do serwisu pod numerem tel. +48 261-828-138
Informacja dla żołnierzy i pracowników wojska: Prosimy o niezwłoczną zmianę adresu e-mail w profilu użytkownika na pocztę w domenie @ron.mil.pl

Aktualna Pogoda
 
Pogoda w Polsce
1°C Szczecin 0°C Suwałki 3°C Warszawa 5°C Poznan
3°C Opole 1°C Kraków 1°C Rzeszów
Więcej miast w Polsce

Pogoda w Europie
3°C Berlin 3°C Paryz 3°C Bruksela 4°C Oslo
2°C Praga 5°C Zagrzeb
Więcej miast w Europie

Metary wojskowe test
METAR EPBC 301000Z 35014KT CAVOK 03/M11 Q1022=
METAR EPCE 301000Z 26008KT 210V290 9999 SCT044 04/M07 Q1021 RMK 037 047 4/4=
METAR EPDA 301000Z 25008KT 210V280 9999 OVC035 02/M02 Q1023 RMK 020 075 8/8=
METAR EPDE 301000Z 33012KT 9999 BKN060 02/M12 Q1021 RMK 023 034 5/5=
METAR EPIR 301000Z 27012KT 9999 SCT050 05/M10 Q1023 RMK 046 033 4/4=
METAR EPKS 301000Z 31012KT 9999 BKN038 03/M06 Q1024 RMK 034 050 6/6=
METAR EPLK 301000Z 33007KT 270V020 9999 BKN045 01/M09 Q1023 RMK 012 045 7/7=
METAR EPLY 301000Z 33006KT 9999 BKN035 02/M08 Q1023 RMK 024 045 6/6=
METAR EPMB 301000Z 35007KT 310V050 9999 BKN060 05/M08 Q1022 RMK 053 037 5/5=
METAR EPMI 301000Z 26010KT 190V320 9999 FEW047 SCT100 BKN200 04/M09 Q1023 RMK 041 039 5/2=
METAR EPMM 301000Z 36013KT 320V030 9999 SCT050 02/M15 Q1020 RMK 020 028 4/4=
METAR EPNA 301000Z 27012KT 9999 FEW040 SCT100 BKN200 03/M10 Q1023 RMK 033 037 5/2=
METAR EPOK 301000Z 30008KT 260V330 9999 -SHGS BKN052CB 04/M06 Q1022 RMK 043 047 5/5=
METAR EPPR 301000Z 30012KT 9999 BKN056 05/M08 Q1022 RMK 047 039 6/6=
METAR EPPW 301000Z 30012KT 9999 SCT047 BKN060 04/M09 Q1023 RMK 036 039 6/4=
METAR EPSN 301000Z 26010KT 200V300 9999 SCT030 BKN070 04/M06 Q1023 RMK 044 045 6/4=
METAR EPTM 301000Z 32012KT 9999 SCT046 BKN060 01/M08 Q1022 RMK 012 051 6/3=


 

Prawa autorskie©2007 SSH SZ RP. Wszelkie prawa zastrzeżone.